sensor_id;sensor_type;location;lat;lon;timestamp;pressure;altitude;pressure_sealevel;temperature;humidity
52625;BME280;38519;52.540;13.410;2023-02-04T00:00:06;101470.16;;;2.31;100.00
52625;BME280;38519;52.540;13.410;2023-02-04T00:02:32;101485.28;;;2.21;100.00
52625;BME280;38519;52.540;13.410;2023-02-04T00:04:58;101493.03;;;2.06;100.00
52625;BME280;38519;52.540;13.410;2023-02-04T00:07:23;101500.03;;;2.00;100.00
52625;BME280;38519;52.540;13.410;2023-02-04T00:09:48;101500.94;;;2.00;100.00
52625;BME280;38519;52.540;13.410;2023-02-04T00:12:14;101514.75;;;2.01;100.00
52625;BME280;38519;52.540;13.410;2023-02-04T00:14:39;101516.22;;;2.06;100.00
52625;BME280;38519;52.540;13.410;2023-02-04T00:17:04;101527.78;;;2.10;100.00
52625;BME280;38519;52.540;13.410;2023-02-04T00:19:32;101536.81;;;2.13;100.00
52625;BME280;38519;52.540;13.410;2023-02-04T00:21:57;101537.75;;;2.14;100.00
52625;BME280;38519;52.540;13.410;2023-02-04T00:24:22;101548.59;;;2.11;100.00
52625;BME280;38519;52.540;13.410;2023-02-04T00:26:48;101561.47;;;2.11;100.00
52625;BME280;38519;52.540;13.410;2023-02-04T00:29:13;101563.13;;;2.11;100.00
52625;BME280;38519;52.540;13.410;2023-02-04T00:31:39;101562.56;;;2.13;100.00
52625;BME280;38519;52.540;13.410;2023-02-04T00:34:04;101590.19;;;2.14;100.00
52625;BME280;38519;52.540;13.410;2023-02-04T00:36:29;101599.75;;;2.08;100.00
52625;BME280;38519;52.540;13.410;2023-02-04T00:38:54;101613.75;;;1.96;100.00
52625;BME280;38519;52.540;13.410;2023-02-04T00:41:20;101627.31;;;1.88;100.00
52625;BME280;38519;52.540;13.410;2023-02-04T00:43:45;101628.78;;;1.78;100.00
52625;BME280;38519;52.540;13.410;2023-02-04T00:46:10;101635.91;;;1.59;100.00
52625;BME280;38519;52.540;13.410;2023-02-04T00:48:36;101654.66;;;1.51;100.00
52625;BME280;38519;52.540;13.410;2023-02-04T00:51:01;101670.28;;;1.53;100.00
52625;BME280;38519;52.540;13.410;2023-02-04T00:53:26;101680.22;;;1.57;100.00
52625;BME280;38519;52.540;13.410;2023-02-04T00:55:51;101686.09;;;1.56;100.00
52625;BME280;38519;52.540;13.410;2023-02-04T00:58:17;101697.47;;;1.51;100.00
52625;BME280;38519;52.540;13.410;2023-02-04T01:00:42;101706.84;;;1.50;100.00
52625;BME280;38519;52.540;13.410;2023-02-04T01:03:07;101728.72;;;1.47;100.00
52625;BME280;38519;52.540;13.410;2023-02-04T01:05:33;101725.56;;;1.42;100.00
52625;BME280;38519;52.540;13.410;2023-02-04T01:07:58;101726.84;;;1.38;100.00
52625;BME280;38519;52.540;13.410;2023-02-04T01:10:23;101739.31;;;1.35;100.00
52625;BME280;38519;52.540;13.410;2023-02-04T01:12:49;101750.31;;;1.34;100.00
52625;BME280;38519;52.540;13.410;2023-02-04T01:15:14;101763.78;;;1.39;100.00
52625;BME280;38519;52.540;13.410;2023-02-04T01:17:39;101768.41;;;1.41;100.00
52625;BME280;38519;52.540;13.410;2023-02-04T01:20:06;101773.00;;;1.44;100.00
52625;BME280;38519;52.540;13.410;2023-02-04T01:22:31;101770.41;;;1.44;100.00
52625;BME280;38519;52.540;13.410;2023-02-04T01:24:56;101768.78;;;1.44;100.00
52625;BME280;38519;52.540;13.410;2023-02-04T01:27:22;101790.81;;;1.42;100.00
52625;BME280;38519;52.540;13.410;2023-02-04T01:29:47;101802.56;;;1.40;100.00
52625;BME280;38519;52.540;13.410;2023-02-04T01:32:13;101811.00;;;1.39;100.00
52625;BME280;38519;52.540;13.410;2023-02-04T01:34:38;101828.81;;;1.38;100.00
52625;BME280;38519;52.540;13.410;2023-02-04T01:37:04;101830.81;;;1.33;100.00
52625;BME280;38519;52.540;13.410;2023-02-04T01:39:29;101830.66;;;1.32;100.00
52625;BME280;38519;52.540;13.410;2023-02-04T01:41:54;101839.81;;;1.30;100.00
52625;BME280;38519;52.540;13.410;2023-02-04T01:44:20;101832.84;;;1.29;100.00
52625;BME280;38519;52.540;13.410;2023-02-04T01:46:45;101842.72;;;1.25;100.00
52625;BME280;38519;52.540;13.410;2023-02-04T01:49:10;101854.44;;;1.23;100.00
52625;BME280;38519;52.540;13.410;2023-02-04T01:51:35;101854.25;;;1.22;100.00
52625;BME280;38519;52.540;13.410;2023-02-04T01:54:01;101856.44;;;1.19;100.00
52625;BME280;38519;52.540;13.410;2023-02-04T01:56:26;101869.28;;;1.19;100.00
52625;BME280;38519;52.540;13.410;2023-02-04T01:58:54;101877.56;;;1.16;100.00
52625;BME280;38519;52.540;13.410;2023-02-04T02:03:57;101910.09;;;1.16;100.00
52625;BME280;38519;52.540;13.410;2023-02-04T02:06:22;101917.06;;;1.17;100.00
52625;BME280;38519;52.540;13.410;2023-02-04T02:08:48;101921.69;;;1.19;100.00
52625;BME280;38519;52.540;13.410;2023-02-04T02:11:13;101923.88;;;1.16;100.00
52625;BME280;38519;52.540;13.410;2023-02-04T02:13:38;101940.22;;;1.17;100.00
52625;BME280;38519;52.540;13.410;2023-02-04T02:16:03;101946.13;;;1.16;100.00
52625;BME280;38519;52.540;13.410;2023-02-04T02:18:30;101953.44;;;1.13;100.00
52625;BME280;38519;52.540;13.410;2023-02-04T02:20:56;101953.94;;;1.10;100.00
52625;BME280;38519;52.540;13.410;2023-02-04T02:26:08;101969.88;;;1.07;100.00
52625;BME280;38519;52.540;13.410;2023-02-04T02:28:33;101975.03;;;1.07;100.00
52625;BME280;38519;52.540;13.410;2023-02-04T02:30:59;101981.44;;;1.04;100.00
52625;BME280;38519;52.540;13.410;2023-02-04T02:33:24;101986.38;;;1.02;100.00
52625;BME280;38519;52.540;13.410;2023-02-04T02:35:50;101987.81;;;1.00;100.00
52625;BME280;38519;52.540;13.410;2023-02-04T02:38:16;101996.25;;;0.99;100.00
52625;BME280;38519;52.540;13.410;2023-02-04T02:40:43;102000.88;;;1.02;100.00
52625;BME280;38519;52.540;13.410;2023-02-04T02:43:09;102001.81;;;1.02;100.00
52625;BME280;38519;52.540;13.410;2023-02-04T02:45:36;102008.91;;;0.98;100.00
52625;BME280;38519;52.540;13.410;2023-02-04T02:48:01;102016.78;;;0.92;100.00
52625;BME280;38519;52.540;13.410;2023-02-04T02:50:28;102023.06;;;0.81;100.00
52625;BME280;38519;52.540;13.410;2023-02-04T02:52:55;102026.75;;;0.83;100.00
52625;BME280;38519;52.540;13.410;2023-02-04T02:55:21;102030.78;;;0.81;100.00
52625;BME280;38519;52.540;13.410;2023-02-04T02:57:48;102043.00;;;0.77;100.00
52625;BME280;38519;52.540;13.410;2023-02-04T03:02:39;102051.97;;;0.73;100.00
52625;BME280;38519;52.540;13.410;2023-02-04T03:05:05;102056.91;;;0.71;100.00
52625;BME280;38519;52.540;13.410;2023-02-04T03:07:30;102068.44;;;0.68;100.00
52625;BME280;38519;52.540;13.410;2023-02-04T03:09:55;102065.25;;;0.63;100.00
52625;BME280;38519;52.540;13.410;2023-02-04T03:12:21;102072.53;;;0.60;100.00
52625;BME280;38519;52.540;13.410;2023-02-04T03:14:46;102079.84;;;0.57;100.00
52625;BME280;38519;52.540;13.410;2023-02-04T03:17:11;102083.13;;;0.56;100.00
52625;BME280;38519;52.540;13.410;2023-02-04T03:19:36;102092.97;;;0.53;100.00
52625;BME280;38519;52.540;13.410;2023-02-04T03:22:03;102091.16;;;0.52;100.00
52625;BME280;38519;52.540;13.410;2023-02-04T03:24:29;102098.44;;;0.49;100.00
52625;BME280;38519;52.540;13.410;2023-02-04T03:26:54;102111.78;;;0.46;100.00
52625;BME280;38519;52.540;13.410;2023-02-04T03:29:19;102116.22;;;0.47;100.00
52625;BME280;38519;52.540;13.410;2023-02-04T03:31:45;102128.16;;;0.47;100.00
52625;BME280;38519;52.540;13.410;2023-02-04T03:34:10;102135.66;;;0.45;100.00
52625;BME280;38519;52.540;13.410;2023-02-04T03:36:35;102142.44;;;0.45;100.00
52625;BME280;38519;52.540;13.410;2023-02-04T03:39:01;102140.38;;;0.42;100.00
52625;BME280;38519;52.540;13.410;2023-02-04T03:41:27;102153.25;;;0.42;100.00
52625;BME280;38519;52.540;13.410;2023-02-04T03:43:52;102154.84;;;0.42;100.00
52625;BME280;38519;52.540;13.410;2023-02-04T03:46:17;102171.94;;;0.41;100.00
52625;BME280;38519;52.540;13.410;2023-02-04T03:48:44;102184.56;;;0.40;100.00
52625;BME280;38519;52.540;13.410;2023-02-04T03:51:09;102190.22;;;0.37;100.00
52625;BME280;38519;52.540;13.410;2023-02-04T03:53:34;102194.41;;;0.36;100.00
52625;BME280;38519;52.540;13.410;2023-02-04T03:56:00;102211.91;;;0.39;100.00
52625;BME280;38519;52.540;13.410;2023-02-04T03:58:25;102218.88;;;0.40;100.00
52625;BME280;38519;52.540;13.410;2023-02-04T04:00:50;102230.53;;;0.44;100.00
52625;BME280;38519;52.540;13.410;2023-02-04T04:03:16;102226.75;;;0.47;100.00
52625;BME280;38519;52.540;13.410;2023-02-04T04:05:41;102236.31;;;0.48;100.00
52625;BME280;38519;52.540;13.410;2023-02-04T04:08:06;102246.81;;;0.50;100.00
52625;BME280;38519;52.540;13.410;2023-02-04T04:10:31;102249.06;;;0.54;100.00
52625;BME280;38519;52.540;13.410;2023-02-04T04:12:57;102252.25;;;0.59;100.00
52625;BME280;38519;52.540;13.410;2023-02-04T04:15:22;102253.59;;;0.62;100.00
52625;BME280;38519;52.540;13.410;2023-02-04T04:17:47;102260.81;;;0.65;100.00
52625;BME280;38519;52.540;13.410;2023-02-04T04:20:13;102268.75;;;0.66;100.00
52625;BME280;38519;52.540;13.410;2023-02-04T04:22:38;102271.31;;;0.66;100.00
52625;BME280;38519;52.540;13.410;2023-02-04T04:25:04;102279.94;;;0.67;100.00
52625;BME280;38519;52.540;13.410;2023-02-04T04:27:29;102278.81;;;0.65;100.00
52625;BME280;38519;52.540;13.410;2023-02-04T04:29:54;102284.88;;;0.65;100.00
52625;BME280;38519;52.540;13.410;2023-02-04T04:32:20;102291.88;;;0.66;100.00
52625;BME280;38519;52.540;13.410;2023-02-04T04:34:45;102297.84;;;0.60;100.00
52625;BME280;38519;52.540;13.410;2023-02-04T04:37:10;102308.81;;;0.59;100.00
52625;BME280;38519;52.540;13.410;2023-02-04T04:39:35;102308.69;;;0.51;100.00
52625;BME280;38519;52.540;13.410;2023-02-04T04:42:01;102316.59;;;0.53;100.00
52625;BME280;38519;52.540;13.410;2023-02-04T04:44:26;102327.19;;;0.49;100.00
52625;BME280;38519;52.540;13.410;2023-02-04T04:46:51;102330.03;;;0.45;100.00
52625;BME280;38519;52.540;13.410;2023-02-04T04:49:17;102340.09;;;0.43;100.00
52625;BME280;38519;52.540;13.410;2023-02-04T04:51:42;102337.84;;;0.39;100.00
52625;BME280;38519;52.540;13.410;2023-02-04T04:54:07;102354.03;;;0.32;100.00
52625;BME280;38519;52.540;13.410;2023-02-04T04:56:32;102360.59;;;0.30;100.00
52625;BME280;38519;52.540;13.410;2023-02-04T04:58:58;102367.16;;;0.28;100.00
52625;BME280;38519;52.540;13.410;2023-02-04T05:01:23;102363.69;;;0.28;100.00
52625;BME280;38519;52.540;13.410;2023-02-04T05:03:48;102365.59;;;0.23;100.00
52625;BME280;38519;52.540;13.410;2023-02-04T05:06:13;102380.56;;;0.20;100.00
52625;BME280;38519;52.540;13.410;2023-02-04T05:08:40;102385.75;;;0.14;100.00
52625;BME280;38519;52.540;13.410;2023-02-04T05:11:05;102385.06;;;0.15;100.00
52625;BME280;38519;52.540;13.410;2023-02-04T05:13:30;102397.22;;;0.16;100.00
52625;BME280;38519;52.540;13.410;2023-02-04T05:15:55;102394.91;;;0.12;100.00
52625;BME280;38519;52.540;13.410;2023-02-04T05:18:21;102401.69;;;0.12;100.00
52625;BME280;38519;52.540;13.410;2023-02-04T05:20:47;102411.28;;;0.13;100.00
52625;BME280;38519;52.540;13.410;2023-02-04T05:23:12;102410.41;;;0.07;100.00
52625;BME280;38519;52.540;13.410;2023-02-04T05:25:37;102412.75;;;0.05;100.00
52625;BME280;38519;52.540;13.410;2023-02-04T05:28:03;102427.00;;;0.03;100.00
52625;BME280;38519;52.540;13.410;2023-02-04T05:30:28;102427.28;;;-0.01;100.00
52625;BME280;38519;52.540;13.410;2023-02-04T05:32:54;102435.19;;;0.01;100.00
52625;BME280;38519;52.540;13.410;2023-02-04T05:35:19;102440.38;;;-0.05;100.00
52625;BME280;38519;52.540;13.410;2023-02-04T05:37:44;102449.88;;;0.02;100.00
52625;BME280;38519;52.540;13.410;2023-02-04T05:40:10;102459.31;;;-0.05;100.00
52625;BME280;38519;52.540;13.410;2023-02-04T05:42:35;102464.66;;;-0.03;100.00
52625;BME280;38519;52.540;13.410;2023-02-04T05:45:00;102468.41;;;-0.07;100.00
52625;BME280;38519;52.540;13.410;2023-02-04T05:47:26;102473.97;;;-0.04;100.00
52625;BME280;38519;52.540;13.410;2023-02-04T05:49:52;102480.56;;;-0.06;100.00
52625;BME280;38519;52.540;13.410;2023-02-04T05:52:17;102490.13;;;-0.05;100.00
52625;BME280;38519;52.540;13.410;2023-02-04T05:54:42;102490.38;;;-0.09;100.00
52625;BME280;38519;52.540;13.410;2023-02-04T05:57:08;102494.81;;;-0.08;100.00
52625;BME280;38519;52.540;13.410;2023-02-04T05:59:33;102492.72;;;-0.10;100.00
52625;BME280;38519;52.540;13.410;2023-02-04T06:01:58;102504.47;;;-0.18;100.00
52625;BME280;38519;52.540;13.410;2023-02-04T06:04:23;102504.44;;;-0.12;100.00
52625;BME280;38519;52.540;13.410;2023-02-04T06:06:49;102516.31;;;-0.13;100.00
52625;BME280;38519;52.540;13.410;2023-02-04T06:09:14;102519.16;;;-0.17;100.00
52625;BME280;38519;52.540;13.410;2023-02-04T06:11:39;102533.66;;;-0.17;100.00
52625;BME280;38519;52.540;13.410;2023-02-04T06:14:04;102542.75;;;-0.20;100.00
52625;BME280;38519;52.540;13.410;2023-02-04T06:16:30;102538.34;;;-0.21;100.00
52625;BME280;38519;52.540;13.410;2023-02-04T06:18:56;102544.22;;;-0.27;100.00
52625;BME280;38519;52.540;13.410;2023-02-04T06:21:22;102545.91;;;-0.33;100.00
52625;BME280;38519;52.540;13.410;2023-02-04T06:23:47;102548.41;;;-0.28;100.00
52625;BME280;38519;52.540;13.410;2023-02-04T06:26:12;102550.31;;;-0.32;100.00
52625;BME280;38519;52.540;13.410;2023-02-04T06:28:38;102561.75;;;-0.30;100.00
52625;BME280;38519;52.540;13.410;2023-02-04T06:31:03;102560.13;;;-0.35;100.00
52625;BME280;38519;52.540;13.410;2023-02-04T06:33:28;102563.38;;;-0.31;100.00
52625;BME280;38519;52.540;13.410;2023-02-04T06:35:53;102563.13;;;-0.32;100.00
52625;BME280;38519;52.540;13.410;2023-02-04T06:38:19;102572.72;;;-0.31;100.00
52625;BME280;38519;52.540;13.410;2023-02-04T06:40:44;102579.72;;;-0.30;100.00
52625;BME280;38519;52.540;13.410;2023-02-04T06:43:13;102585.56;;;-0.31;100.00
52625;BME280;38519;52.540;13.410;2023-02-04T06:45:38;102581.63;;;-0.41;100.00
52625;BME280;38519;52.540;13.410;2023-02-04T06:48:04;102578.84;;;-0.42;100.00
52625;BME280;38519;52.540;13.410;2023-02-04T06:50:29;102576.94;;;-0.32;100.00
52625;BME280;38519;52.540;13.410;2023-02-04T06:52:54;102582.50;;;-0.29;100.00
52625;BME280;38519;52.540;13.410;2023-02-04T06:55:20;102581.09;;;-0.32;100.00
52625;BME280;38519;52.540;13.410;2023-02-04T06:57:45;102580.16;;;-0.27;100.00
52625;BME280;38519;52.540;13.410;2023-02-04T07:00:10;102585.50;;;-0.26;100.00
52625;BME280;38519;52.540;13.410;2023-02-04T07:02:36;102589.25;;;-0.24;100.00
52625;BME280;38519;52.540;13.410;2023-02-04T07:05:03;102584.56;;;-0.26;100.00
52625;BME280;38519;52.540;13.410;2023-02-04T07:07:28;102585.31;;;-0.27;100.00
52625;BME280;38519;52.540;13.410;2023-02-04T07:09:54;102590.22;;;-0.29;100.00
52625;BME280;38519;52.540;13.410;2023-02-04T07:12:19;102584.84;;;-0.30;100.00
52625;BME280;38519;52.540;13.410;2023-02-04T07:14:44;102587.66;;;-0.29;100.00
52625;BME280;38519;52.540;13.410;2023-02-04T07:17:09;102590.22;;;-0.29;100.00
52625;BME280;38519;52.540;13.410;2023-02-04T07:19:35;102596.25;;;-0.28;100.00
52625;BME280;38519;52.540;13.410;2023-02-04T07:22:00;102596.97;;;-0.29;100.00
52625;BME280;38519;52.540;13.410;2023-02-04T07:24:25;102605.63;;;-0.29;100.00
52625;BME280;38519;52.540;13.410;2023-02-04T07:26:51;102614.25;;;-0.28;100.00
52625;BME280;38519;52.540;13.410;2023-02-04T07:29:16;102623.59;;;-0.29;100.00
52625;BME280;38519;52.540;13.410;2023-02-04T07:31:43;102628.72;;;-0.29;100.00
52625;BME280;38519;52.540;13.410;2023-02-04T07:34:09;102623.59;;;-0.29;100.00
52625;BME280;38519;52.540;13.410;2023-02-04T07:36:35;102639.41;;;-0.26;100.00
52625;BME280;38519;52.540;13.410;2023-02-04T07:39:00;102644.06;;;-0.23;100.00
52625;BME280;38519;52.540;13.410;2023-02-04T07:41:25;102645.44;;;-0.20;100.00
52625;BME280;38519;52.540;13.410;2023-02-04T07:43:50;102644.75;;;-0.19;100.00
52625;BME280;38519;52.540;13.410;2023-02-04T07:46:16;102653.13;;;-0.14;100.00
52625;BME280;38519;52.540;13.410;2023-02-04T07:48:41;102661.06;;;-0.12;100.00
52625;BME280;38519;52.540;13.410;2023-02-04T07:51:06;102661.72;;;-0.08;100.00
52625;BME280;38519;52.540;13.410;2023-02-04T07:53:32;102671.72;;;-0.04;100.00
52625;BME280;38519;52.540;13.410;2023-02-04T07:55:57;102669.63;;;-0.01;100.00
52625;BME280;38519;52.540;13.410;2023-02-04T07:58:22;102675.19;;;0.03;100.00
52625;BME280;38519;52.540;13.410;2023-02-04T08:00:47;102675.41;;;0.04;100.00
52625;BME280;38519;52.540;13.410;2023-02-04T08:03:14;102688.69;;;0.13;100.00
52625;BME280;38519;52.540;13.410;2023-02-04T08:05:39;102695.44;;;0.18;100.00
52625;BME280;38519;52.540;13.410;2023-02-04T08:08:04;102696.09;;;0.23;100.00
52625;BME280;38519;52.540;13.410;2023-02-04T08:10:29;102699.31;;;0.27;100.00
52625;BME280;38519;52.540;13.410;2023-02-04T08:12:55;102711.00;;;0.31;100.00
52625;BME280;38519;52.540;13.410;2023-02-04T08:15:20;102710.72;;;0.35;100.00
52625;BME280;38519;52.540;13.410;2023-02-04T08:17:45;102714.47;;;0.37;100.00
52625;BME280;38519;52.540;13.410;2023-02-04T08:20:11;102721.66;;;0.40;100.00
52625;BME280;38519;52.540;13.410;2023-02-04T08:22:36;102725.38;;;0.42;100.00
52625;BME280;38519;52.540;13.410;2023-02-04T08:25:02;102727.00;;;0.47;100.00
52625;BME280;38519;52.540;13.410;2023-02-04T08:27:27;102727.22;;;0.48;100.00
52625;BME280;38519;52.540;13.410;2023-02-04T08:29:52;102731.41;;;0.48;100.00
52625;BME280;38519;52.540;13.410;2023-02-04T08:32:20;102736.78;;;0.49;100.00
52625;BME280;38519;52.540;13.410;2023-02-04T08:34:45;102739.78;;;0.58;100.00
52625;BME280;38519;52.540;13.410;2023-02-04T08:37:12;102738.34;;;0.60;100.00
52625;BME280;38519;52.540;13.410;2023-02-04T08:39:37;102748.78;;;0.67;100.00
52625;BME280;38519;52.540;13.410;2023-02-04T08:42:04;102750.88;;;0.70;100.00
52625;BME280;38519;52.540;13.410;2023-02-04T08:44:29;102753.44;;;0.76;100.00
52625;BME280;38519;52.540;13.410;2023-02-04T08:46:54;102748.91;;;0.80;100.00
52625;BME280;38519;52.540;13.410;2023-02-04T08:49:20;102753.59;;;0.83;100.00
52625;BME280;38519;52.540;13.410;2023-02-04T08:51:47;102754.50;;;0.83;100.00
52625;BME280;38519;52.540;13.410;2023-02-04T08:54:12;102755.91;;;0.87;100.00
52625;BME280;38519;52.540;13.410;2023-02-04T08:56:38;102761.19;;;0.94;100.00
52625;BME280;38519;52.540;13.410;2023-02-04T08:59:03;102767.50;;;0.96;100.00
52625;BME280;38519;52.540;13.410;2023-02-04T09:01:31;102771.69;;;1.01;100.00
52625;BME280;38519;52.540;13.410;2023-02-04T09:03:56;102774.03;;;1.00;100.00
52625;BME280;38519;52.540;13.410;2023-02-04T09:06:21;102769.97;;;1.07;100.00
52625;BME280;38519;52.540;13.410;2023-02-04T09:08:48;102780.44;;;1.15;100.00
52625;BME280;38519;52.540;13.410;2023-02-04T09:11:13;102779.66;;;1.21;100.00
52625;BME280;38519;52.540;13.410;2023-02-04T09:13:39;102783.13;;;1.27;100.00
52625;BME280;38519;52.540;13.410;2023-02-04T09:16:04;102794.53;;;1.35;100.00
52625;BME280;38519;52.540;13.410;2023-02-04T09:18:30;102787.72;;;1.36;100.00
52625;BME280;38519;52.540;13.410;2023-02-04T09:20:56;102782.53;;;1.41;100.00
52625;BME280;38519;52.540;13.410;2023-02-04T09:23:22;102793.25;;;1.44;100.00
52625;BME280;38519;52.540;13.410;2023-02-04T09:25:48;102793.41;;;1.52;100.00
52625;BME280;38519;52.540;13.410;2023-02-04T09:28:13;102802.00;;;1.58;100.00
52625;BME280;38519;52.540;13.410;2023-02-04T09:30:41;102809.88;;;1.65;100.00
52625;BME280;38519;52.540;13.410;2023-02-04T09:33:07;102814.97;;;1.71;100.00
52625;BME280;38519;52.540;13.410;2023-02-04T09:35:32;102818.66;;;1.78;100.00
52625;BME280;38519;52.540;13.410;2023-02-04T09:37:58;102824.63;;;1.85;100.00
52625;BME280;38519;52.540;13.410;2023-02-04T09:40:23;102828.81;;;1.90;100.00
52625;BME280;38519;52.540;13.410;2023-02-04T09:42:50;102830.88;;;1.92;100.00
52625;BME280;38519;52.540;13.410;2023-02-04T09:45:17;102828.59;;;1.88;100.00
52625;BME280;38519;52.540;13.410;2023-02-04T09:47:42;102829.59;;;2.02;100.00
52625;BME280;38519;52.540;13.410;2023-02-04T09:50:12;102836.41;;;2.19;100.00
52625;BME280;38519;52.540;13.410;2023-02-04T09:52:38;102836.19;;;2.18;100.00
52625;BME280;38519;52.540;13.410;2023-02-04T09:55:04;102837.69;;;2.29;100.00
52625;BME280;38519;52.540;13.410;2023-02-04T09:57:32;102841.78;;;2.40;100.00
52625;BME280;38519;52.540;13.410;2023-02-04T09:59:58;102837.69;;;2.29;100.00
52625;BME280;38519;52.540;13.410;2023-02-04T10:02:24;102847.47;;;2.18;100.00
52625;BME280;38519;52.540;13.410;2023-02-04T10:04:50;102850.38;;;2.27;100.00
52625;BME280;38519;52.540;13.410;2023-02-04T10:07:16;102854.19;;;2.24;100.00
52625;BME280;38519;52.540;13.410;2023-02-04T10:09:46;102850.38;;;2.27;100.00
52625;BME280;38519;52.540;13.410;2023-02-04T10:12:13;102853.25;;;2.23;100.00
52625;BME280;38519;52.540;13.410;2023-02-04T10:14:38;102850.03;;;2.18;100.00
52625;BME280;38519;52.540;13.410;2023-02-04T10:17:04;102855.41;;;2.20;100.00
52625;BME280;38519;52.540;13.410;2023-02-04T10:19:29;102858.06;;;2.33;100.00
52625;BME280;38519;52.540;13.410;2023-02-04T10:21:55;102857.25;;;2.40;100.00
52625;BME280;38519;52.540;13.410;2023-02-04T10:24:22;102856.63;;;2.35;100.00
52625;BME280;38519;52.540;13.410;2023-02-04T10:26:51;102860.63;;;2.33;100.00
52625;BME280;38519;52.540;13.410;2023-02-04T10:29:18;102860.97;;;2.42;100.00
52625;BME280;38519;52.540;13.410;2023-02-04T10:31:45;102858.56;;;2.49;100.00
52625;BME280;38519;52.540;13.410;2023-02-04T10:34:21;102855.94;;;2.67;100.00
52625;BME280;38519;52.540;13.410;2023-02-04T10:36:47;102868.44;;;2.77;100.00
52625;BME280;38519;52.540;13.410;2023-02-04T10:41:42;102869.25;;;2.70;100.00
52625;BME280;38519;52.540;13.410;2023-02-04T10:44:09;102876.44;;;2.60;100.00
52625;BME280;38519;52.540;13.410;2023-02-04T10:46:35;102869.38;;;2.78;100.00
52625;BME280;38519;52.540;13.410;2023-02-04T10:49:03;102870.78;;;2.94;100.00
52625;BME280;38519;52.540;13.410;2023-02-04T10:51:28;102878.81;;;2.90;100.00
52625;BME280;38519;52.540;13.410;2023-02-04T10:53:53;102867.41;;;3.01;100.00
52625;BME280;38519;52.540;13.410;2023-02-04T10:56:37;102869.78;;;2.99;100.00
52625;BME280;38519;52.540;13.410;2023-02-04T10:59:03;102877.84;;;3.08;100.00
52625;BME280;38519;52.540;13.410;2023-02-04T11:01:28;102872.09;;;2.85;100.00
52625;BME280;38519;52.540;13.410;2023-02-04T11:03:54;102873.53;;;2.83;100.00
52625;BME280;38519;52.540;13.410;2023-02-04T11:06:20;102873.38;;;2.94;100.00
52625;BME280;38519;52.540;13.410;2023-02-04T11:08:45;102875.91;;;3.25;100.00
52625;BME280;38519;52.540;13.410;2023-02-04T11:11:19;102882.22;;;3.15;100.00
52625;BME280;38519;52.540;13.410;2023-02-04T11:18:46;102878.97;;;2.79;100.00
52625;BME280;38519;52.540;13.410;2023-02-04T11:22:02;102880.31;;;2.82;100.00
52625;BME280;38519;52.540;13.410;2023-02-04T11:39:16;102903.44;;;2.75;100.00
52625;BME280;38519;52.540;13.410;2023-02-04T11:41:43;102907.19;;;2.59;100.00
52625;BME280;38519;52.540;13.410;2023-02-04T11:44:10;102915.63;;;2.58;100.00
52625;BME280;38519;52.540;13.410;2023-02-04T11:46:35;102916.13;;;2.55;100.00
52625;BME280;38519;52.540;13.410;2023-02-04T11:49:01;102925.66;;;2.43;100.00
52625;BME280;38519;52.540;13.410;2023-02-04T11:51:30;102924.78;;;2.37;100.00
52625;BME280;38519;52.540;13.410;2023-02-04T11:53:56;102926.22;;;2.35;100.00
52625;BME280;38519;52.540;13.410;2023-02-04T11:56:22;102926.94;;;2.34;100.00
52625;BME280;38519;52.540;13.410;2023-02-04T11:58:47;102927.09;;;2.41;100.00
52625;BME280;38519;52.540;13.410;2023-02-04T12:01:20;102926.09;;;2.46;100.00
52625;BME280;38519;52.540;13.410;2023-02-04T12:03:47;102919.13;;;2.77;100.00
52625;BME280;38519;52.540;13.410;2023-02-04T12:06:22;102912.75;;;3.12;100.00
52625;BME280;38519;52.540;13.410;2023-02-04T12:08:47;102917.63;;;3.16;100.00
52625;BME280;38519;52.540;13.410;2023-02-04T12:11:28;102914.13;;;3.15;100.00
52625;BME280;38519;52.540;13.410;2023-02-04T12:13:58;102908.38;;;3.05;99.28
52625;BME280;38519;52.540;13.410;2023-02-04T12:16:38;102920.47;;;2.80;98.04
52625;BME280;38519;52.540;13.410;2023-02-04T12:19:04;102917.41;;;2.83;98.89
52625;BME280;38519;52.540;13.410;2023-02-04T12:21:29;102918.81;;;2.81;98.47
52625;BME280;38519;52.540;13.410;2023-02-04T12:23:54;102920.16;;;3.03;98.03
52625;BME280;38519;52.540;13.410;2023-02-04T12:26:19;102917.81;;;3.17;100.00
52625;BME280;38519;52.540;13.410;2023-02-04T12:28:45;102924.28;;;3.08;100.00
52625;BME280;38519;52.540;13.410;2023-02-04T12:31:10;102933.81;;;3.02;100.00
52625;BME280;38519;52.540;13.410;2023-02-04T12:33:35;102943.97;;;2.95;99.12
52625;BME280;38519;52.540;13.410;2023-02-04T12:36:00;102947.13;;;2.86;100.00
52625;BME280;38519;52.540;13.410;2023-02-04T12:38:25;102946.97;;;2.98;100.00
52625;BME280;38519;52.540;13.410;2023-02-04T12:40:53;102952.34;;;2.81;100.00
52625;BME280;38519;52.540;13.410;2023-02-04T12:43:18;102948.16;;;2.81;100.00
52625;BME280;38519;52.540;13.410;2023-02-04T12:45:43;102939.69;;;2.82;100.00
52625;BME280;38519;52.540;13.410;2023-02-04T12:48:10;102941.00;;;2.73;100.00
52625;BME280;38519;52.540;13.410;2023-02-04T12:50:36;102939.19;;;2.85;100.00
52625;BME280;38519;52.540;13.410;2023-02-04T12:53:01;102935.38;;;2.88;99.44
52625;BME280;38519;52.540;13.410;2023-02-04T12:55:27;102943.50;;;2.79;97.51
52625;BME280;38519;52.540;13.410;2023-02-04T12:57:54;102951.44;;;2.80;97.86
52625;BME280;38519;52.540;13.410;2023-02-04T13:00:20;102946.59;;;2.76;98.32